sensor_id;sensor_type;location;lat;lon;timestamp;temperature;humidity
14097;DHT22;7125;48.106;11.544;2023-05-14T00:02:10;11.30;99.90
14097;DHT22;7125;48.106;11.544;2023-05-14T00:04:37;11.30;99.90
14097;DHT22;7125;48.106;11.544;2023-05-14T00:07:06;11.30;99.90
14097;DHT22;7125;48.106;11.544;2023-05-14T00:09:36;11.20;99.90
14097;DHT22;7125;48.106;11.544;2023-05-14T00:12:03;11.30;99.90
14097;DHT22;7125;48.106;11.544;2023-05-14T00:14:31;11.20;99.90
14097;DHT22;7125;48.106;11.544;2023-05-14T00:16:59;11.20;99.90
14097;DHT22;7125;48.106;11.544;2023-05-14T00:19:31;11.20;99.90
14097;DHT22;7125;48.106;11.544;2023-05-14T00:21:58;11.20;99.90
14097;DHT22;7125;48.106;11.544;2023-05-14T00:24:26;11.20;99.90
14097;DHT22;7125;48.106;11.544;2023-05-14T00:26:55;11.20;99.90
14097;DHT22;7125;48.106;11.544;2023-05-14T00:29:22;11.10;99.90
14097;DHT22;7125;48.106;11.544;2023-05-14T00:31:49;11.20;99.90
14097;DHT22;7125;48.106;11.544;2023-05-14T00:34:18;11.20;99.90
14097;DHT22;7125;48.106;11.544;2023-05-14T00:36:47;11.20;99.90
14097;DHT22;7125;48.106;11.544;2023-05-14T00:39:14;11.20;99.90
14097;DHT22;7125;48.106;11.544;2023-05-14T00:41:42;11.20;99.90
14097;DHT22;7125;48.106;11.544;2023-05-14T00:44:11;11.10;99.90
14097;DHT22;7125;48.106;11.544;2023-05-14T00:46:39;11.10;99.90
14097;DHT22;7125;48.106;11.544;2023-05-14T00:49:08;11.10;99.90
14097;DHT22;7125;48.106;11.544;2023-05-14T00:51:35;11.10;99.90
14097;DHT22;7125;48.106;11.544;2023-05-14T00:54:02;11.10;99.90
14097;DHT22;7125;48.106;11.544;2023-05-14T00:56:30;11.10;99.90
14097;DHT22;7125;48.106;11.544;2023-05-14T00:58:57;11.10;99.90
14097;DHT22;7125;48.106;11.544;2023-05-14T01:01:26;11.10;99.90
14097;DHT22;7125;48.106;11.544;2023-05-14T01:03:55;11.10;99.90
14097;DHT22;7125;48.106;11.544;2023-05-14T01:06:27;11.10;99.90
14097;DHT22;7125;48.106;11.544;2023-05-14T01:09:02;11.10;99.90
14097;DHT22;7125;48.106;11.544;2023-05-14T01:11:38;11.10;99.90
14097;DHT22;7125;48.106;11.544;2023-05-14T01:14:13;11.00;99.90
14097;DHT22;7125;48.106;11.544;2023-05-14T01:16:46;11.10;99.90
14097;DHT22;7125;48.106;11.544;2023-05-14T01:19:21;11.00;99.90
14097;DHT22;7125;48.106;11.544;2023-05-14T01:21:49;11.00;99.90
14097;DHT22;7125;48.106;11.544;2023-05-14T01:24:16;11.00;99.90
14097;DHT22;7125;48.106;11.544;2023-05-14T01:26:44;10.90;99.90
14097;DHT22;7125;48.106;11.544;2023-05-14T01:29:20;11.00;99.90
14097;DHT22;7125;48.106;11.544;2023-05-14T01:31:50;10.90;99.90
14097;DHT22;7125;48.106;11.544;2023-05-14T01:34:21;10.90;99.90
14097;DHT22;7125;48.106;11.544;2023-05-14T01:36:52;11.00;99.90
14097;DHT22;7125;48.106;11.544;2023-05-14T01:39:20;11.00;99.90
14097;DHT22;7125;48.106;11.544;2023-05-14T01:41:47;10.90;99.90
14097;DHT22;7125;48.106;11.544;2023-05-14T01:44:15;10.90;99.90
14097;DHT22;7125;48.106;11.544;2023-05-14T01:46:43;10.90;99.90
14097;DHT22;7125;48.106;11.544;2023-05-14T01:49:10;10.90;99.90
14097;DHT22;7125;48.106;11.544;2023-05-14T01:51:38;11.00;99.90
14097;DHT22;7125;48.106;11.544;2023-05-14T01:54:06;10.90;99.90
14097;DHT22;7125;48.106;11.544;2023-05-14T01:56:34;10.90;99.90
14097;DHT22;7125;48.106;11.544;2023-05-14T01:59:02;10.90;99.90
14097;DHT22;7125;48.106;11.544;2023-05-14T02:01:31;10.90;99.90
14097;DHT22;7125;48.106;11.544;2023-05-14T02:03:59;10.80;99.90
14097;DHT22;7125;48.106;11.544;2023-05-14T02:06:26;10.80;99.90
14097;DHT22;7125;48.106;11.544;2023-05-14T02:08:55;10.90;99.90
14097;DHT22;7125;48.106;11.544;2023-05-14T02:11:23;10.80;99.90
14097;DHT22;7125;48.106;11.544;2023-05-14T02:13:50;10.80;99.90
14097;DHT22;7125;48.106;11.544;2023-05-14T02:16:24;10.80;99.90
14097;DHT22;7125;48.106;11.544;2023-05-14T02:18:53;10.70;99.90
14097;DHT22;7125;48.106;11.544;2023-05-14T02:21:20;10.70;99.90
14097;DHT22;7125;48.106;11.544;2023-05-14T02:23:48;10.70;99.90
14097;DHT22;7125;48.106;11.544;2023-05-14T02:26:16;10.70;99.90
14097;DHT22;7125;48.106;11.544;2023-05-14T02:28:45;10.70;99.90
14097;DHT22;7125;48.106;11.544;2023-05-14T02:31:13;10.60;99.90
14097;DHT22;7125;48.106;11.544;2023-05-14T02:33:42;10.60;99.90
14097;DHT22;7125;48.106;11.544;2023-05-14T02:36:11;10.60;99.90
14097;DHT22;7125;48.106;11.544;2023-05-14T02:38:38;10.60;99.90
14097;DHT22;7125;48.106;11.544;2023-05-14T02:41:06;10.60;99.90
14097;DHT22;7125;48.106;11.544;2023-05-14T02:43:33;10.50;99.90
14097;DHT22;7125;48.106;11.544;2023-05-14T02:46:02;10.50;99.90
14097;DHT22;7125;48.106;11.544;2023-05-14T02:48:29;10.50;99.90
14097;DHT22;7125;48.106;11.544;2023-05-14T02:50:59;10.50;99.90
14097;DHT22;7125;48.106;11.544;2023-05-14T02:53:26;10.50;99.90
14097;DHT22;7125;48.106;11.544;2023-05-14T02:55:53;10.50;99.90
14097;DHT22;7125;48.106;11.544;2023-05-14T02:58:22;10.40;99.90
14097;DHT22;7125;48.106;11.544;2023-05-14T03:00:50;10.40;99.90
14097;DHT22;7125;48.106;11.544;2023-05-14T03:03:19;10.40;99.90
14097;DHT22;7125;48.106;11.544;2023-05-14T03:05:48;10.40;99.90
14097;DHT22;7125;48.106;11.544;2023-05-14T03:08:23;10.40;99.90
14097;DHT22;7125;48.106;11.544;2023-05-14T03:10:54;10.40;99.90
14097;DHT22;7125;48.106;11.544;2023-05-14T03:13:21;10.40;99.90
14097;DHT22;7125;48.106;11.544;2023-05-14T03:15:48;10.40;99.90
14097;DHT22;7125;48.106;11.544;2023-05-14T03:18:22;10.40;99.90
14097;DHT22;7125;48.106;11.544;2023-05-14T03:20:49;10.40;99.90
14097;DHT22;7125;48.106;11.544;2023-05-14T03:23:16;10.40;99.90
14097;DHT22;7125;48.106;11.544;2023-05-14T03:25:51;10.40;99.90
14097;DHT22;7125;48.106;11.544;2023-05-14T03:28:27;10.40;99.90
14097;DHT22;7125;48.106;11.544;2023-05-14T03:30:54;10.40;99.90
14097;DHT22;7125;48.106;11.544;2023-05-14T03:33:38;10.40;99.90
14097;DHT22;7125;48.106;11.544;2023-05-14T03:36:06;10.40;99.90
14097;DHT22;7125;48.106;11.544;2023-05-14T03:38:34;10.40;99.90
14097;DHT22;7125;48.106;11.544;2023-05-14T03:41:02;10.30;99.90
14097;DHT22;7125;48.106;11.544;2023-05-14T03:43:30;10.30;99.90
14097;DHT22;7125;48.106;11.544;2023-05-14T03:46:00;10.30;99.90
14097;DHT22;7125;48.106;11.544;2023-05-14T03:48:30;10.20;99.90
14097;DHT22;7125;48.106;11.544;2023-05-14T03:50:59;10.30;99.90
14097;DHT22;7125;48.106;11.544;2023-05-14T03:53:27;10.20;99.90
14097;DHT22;7125;48.106;11.544;2023-05-14T03:55:54;10.20;99.90
14097;DHT22;7125;48.106;11.544;2023-05-14T03:58:24;10.30;99.90
14097;DHT22;7125;48.106;11.544;2023-05-14T04:00:54;10.30;99.90
14097;DHT22;7125;48.106;11.544;2023-05-14T04:03:21;10.30;99.90
14097;DHT22;7125;48.106;11.544;2023-05-14T04:05:50;10.30;99.90
14097;DHT22;7125;48.106;11.544;2023-05-14T04:08:20;10.30;99.90
14097;DHT22;7125;48.106;11.544;2023-05-14T04:10:51;10.20;99.90
14097;DHT22;7125;48.106;11.544;2023-05-14T04:13:22;10.30;99.90
14097;DHT22;7125;48.106;11.544;2023-05-14T04:15:49;10.30;99.90
14097;DHT22;7125;48.106;11.544;2023-05-14T04:18:16;10.30;99.90
14097;DHT22;7125;48.106;11.544;2023-05-14T04:20:45;10.30;99.90
14097;DHT22;7125;48.106;11.544;2023-05-14T04:23:12;10.30;99.90
14097;DHT22;7125;48.106;11.544;2023-05-14T04:25:41;10.30;99.90
14097;DHT22;7125;48.106;11.544;2023-05-14T04:28:08;10.30;99.90
14097;DHT22;7125;48.106;11.544;2023-05-14T04:30:36;10.20;99.90
14097;DHT22;7125;48.106;11.544;2023-05-14T04:33:04;10.30;99.90
14097;DHT22;7125;48.106;11.544;2023-05-14T04:35:31;10.30;99.90
14097;DHT22;7125;48.106;11.544;2023-05-14T04:37:59;10.30;99.90
14097;DHT22;7125;48.106;11.544;2023-05-14T04:40:26;10.30;99.90
14097;DHT22;7125;48.106;11.544;2023-05-14T04:42:54;10.20;99.90
14097;DHT22;7125;48.106;11.544;2023-05-14T04:45:22;10.30;99.90
14097;DHT22;7125;48.106;11.544;2023-05-14T04:47:53;10.30;99.90
14097;DHT22;7125;48.106;11.544;2023-05-14T04:50:20;10.30;99.90
14097;DHT22;7125;48.106;11.544;2023-05-14T04:52:47;10.20;99.90
14097;DHT22;7125;48.106;11.544;2023-05-14T04:55:18;10.20;99.90
14097;DHT22;7125;48.106;11.544;2023-05-14T04:57:57;10.20;99.90
14097;DHT22;7125;48.106;11.544;2023-05-14T05:00:25;10.30;99.90
14097;DHT22;7125;48.106;11.544;2023-05-14T05:02:53;10.30;99.90
14097;DHT22;7125;48.106;11.544;2023-05-14T05:05:20;10.30;99.90
14097;DHT22;7125;48.106;11.544;2023-05-14T05:07:48;10.30;99.90
14097;DHT22;7125;48.106;11.544;2023-05-14T05:10:15;10.20;99.90
14097;DHT22;7125;48.106;11.544;2023-05-14T05:12:43;10.30;99.90
14097;DHT22;7125;48.106;11.544;2023-05-14T05:15:13;10.30;99.90
14097;DHT22;7125;48.106;11.544;2023-05-14T05:17:41;10.30;99.90
14097;DHT22;7125;48.106;11.544;2023-05-14T05:20:09;10.30;99.90
14097;DHT22;7125;48.106;11.544;2023-05-14T05:22:36;10.30;99.90
14097;DHT22;7125;48.106;11.544;2023-05-14T05:25:04;10.30;99.90
14097;DHT22;7125;48.106;11.544;2023-05-14T05:27:32;10.30;99.90
14097;DHT22;7125;48.106;11.544;2023-05-14T05:30:01;10.30;99.90
14097;DHT22;7125;48.106;11.544;2023-05-14T05:32:31;10.30;99.90
14097;DHT22;7125;48.106;11.544;2023-05-14T05:34:58;10.40;99.90
14097;DHT22;7125;48.106;11.544;2023-05-14T05:37:26;10.30;99.90
14097;DHT22;7125;48.106;11.544;2023-05-14T05:39:53;10.30;99.90
14097;DHT22;7125;48.106;11.544;2023-05-14T05:42:21;10.30;99.90
14097;DHT22;7125;48.106;11.544;2023-05-14T05:44:48;10.30;99.90
14097;DHT22;7125;48.106;11.544;2023-05-14T05:47:16;10.20;99.90
14097;DHT22;7125;48.106;11.544;2023-05-14T05:49:44;10.30;99.90
14097;DHT22;7125;48.106;11.544;2023-05-14T05:52:12;10.30;99.90
14097;DHT22;7125;48.106;11.544;2023-05-14T05:54:39;10.30;99.90
14097;DHT22;7125;48.106;11.544;2023-05-14T05:57:06;10.30;99.90
14097;DHT22;7125;48.106;11.544;2023-05-14T05:59:33;10.40;99.90
14097;DHT22;7125;48.106;11.544;2023-05-14T06:02:00;10.40;99.90
14097;DHT22;7125;48.106;11.544;2023-05-14T06:04:28;10.40;99.90
14097;DHT22;7125;48.106;11.544;2023-05-14T06:06:57;10.40;99.90
14097;DHT22;7125;48.106;11.544;2023-05-14T06:09:24;10.40;99.90
14097;DHT22;7125;48.106;11.544;2023-05-14T06:11:51;10.40;99.90
14097;DHT22;7125;48.106;11.544;2023-05-14T06:14:19;10.50;99.90
14097;DHT22;7125;48.106;11.544;2023-05-14T06:16:47;10.50;99.90
14097;DHT22;7125;48.106;11.544;2023-05-14T06:19:18;10.60;99.90
14097;DHT22;7125;48.106;11.544;2023-05-14T06:21:47;10.60;99.90
14097;DHT22;7125;48.106;11.544;2023-05-14T06:24:18;10.60;99.90
14097;DHT22;7125;48.106;11.544;2023-05-14T06:26:50;10.60;99.90
14097;DHT22;7125;48.106;11.544;2023-05-14T06:29:18;10.60;99.90
14097;DHT22;7125;48.106;11.544;2023-05-14T06:31:45;10.70;99.90
14097;DHT22;7125;48.106;11.544;2023-05-14T06:34:14;10.80;99.90
14097;DHT22;7125;48.106;11.544;2023-05-14T06:36:41;10.80;99.90
14097;DHT22;7125;48.106;11.544;2023-05-14T06:39:09;10.80;99.90
14097;DHT22;7125;48.106;11.544;2023-05-14T06:41:38;10.90;99.90
14097;DHT22;7125;48.106;11.544;2023-05-14T06:44:13;10.90;99.90
14097;DHT22;7125;48.106;11.544;2023-05-14T06:46:40;10.90;99.90
14097;DHT22;7125;48.106;11.544;2023-05-14T06:49:07;11.00;99.90
14097;DHT22;7125;48.106;11.544;2023-05-14T06:51:34;11.00;99.90
14097;DHT22;7125;48.106;11.544;2023-05-14T06:54:08;11.00;99.90
14097;DHT22;7125;48.106;11.544;2023-05-14T06:56:40;11.00;99.90
14097;DHT22;7125;48.106;11.544;2023-05-14T06:59:07;11.10;99.90
14097;DHT22;7125;48.106;11.544;2023-05-14T07:01:34;11.10;99.90
14097;DHT22;7125;48.106;11.544;2023-05-14T07:04:01;11.20;99.90
14097;DHT22;7125;48.106;11.544;2023-05-14T07:06:29;11.20;99.90
14097;DHT22;7125;48.106;11.544;2023-05-14T07:08:57;11.20;99.90
14097;DHT22;7125;48.106;11.544;2023-05-14T07:11:26;11.20;99.90
14097;DHT22;7125;48.106;11.544;2023-05-14T07:13:55;11.30;99.90
14097;DHT22;7125;48.106;11.544;2023-05-14T07:16:22;11.30;99.90
14097;DHT22;7125;48.106;11.544;2023-05-14T07:18:49;11.30;99.90
14097;DHT22;7125;48.106;11.544;2023-05-14T07:21:17;11.40;99.90
14097;DHT22;7125;48.106;11.544;2023-05-14T07:23:48;11.40;99.90
14097;DHT22;7125;48.106;11.544;2023-05-14T07:26:18;11.50;99.90
14097;DHT22;7125;48.106;11.544;2023-05-14T07:28:49;11.60;99.90
14097;DHT22;7125;48.106;11.544;2023-05-14T07:31:17;11.60;99.90
14097;DHT22;7125;48.106;11.544;2023-05-14T07:33:45;11.60;99.90
14097;DHT22;7125;48.106;11.544;2023-05-14T07:36:13;11.70;99.90
14097;DHT22;7125;48.106;11.544;2023-05-14T07:38:43;11.70;99.90
14097;DHT22;7125;48.106;11.544;2023-05-14T07:41:12;11.70;99.90
14097;DHT22;7125;48.106;11.544;2023-05-14T07:43:39;11.70;99.90
14097;DHT22;7125;48.106;11.544;2023-05-14T07:46:07;11.70;99.90
14097;DHT22;7125;48.106;11.544;2023-05-14T07:48:43;11.70;99.90
14097;DHT22;7125;48.106;11.544;2023-05-14T07:51:14;11.70;99.90
14097;DHT22;7125;48.106;11.544;2023-05-14T07:53:41;11.70;99.90
14097;DHT22;7125;48.106;11.544;2023-05-14T07:56:11;11.80;99.90
14097;DHT22;7125;48.106;11.544;2023-05-14T07:58:52;11.70;99.90
14097;DHT22;7125;48.106;11.544;2023-05-14T08:01:20;11.80;99.90
14097;DHT22;7125;48.106;11.544;2023-05-14T08:03:48;11.80;99.90
14097;DHT22;7125;48.106;11.544;2023-05-14T08:06:15;11.80;99.90
14097;DHT22;7125;48.106;11.544;2023-05-14T08:08:45;11.90;99.90
14097;DHT22;7125;48.106;11.544;2023-05-14T08:11:13;12.10;99.90
14097;DHT22;7125;48.106;11.544;2023-05-14T08:13:48;12.20;99.90
14097;DHT22;7125;48.106;11.544;2023-05-14T08:16:15;12.40;99.90
14097;DHT22;7125;48.106;11.544;2023-05-14T08:18:45;12.40;99.90
14097;DHT22;7125;48.106;11.544;2023-05-14T08:21:22;12.30;99.90
14097;DHT22;7125;48.106;11.544;2023-05-14T08:23:53;12.20;99.90
14097;DHT22;7125;48.106;11.544;2023-05-14T08:26:33;12.10;99.90
14097;DHT22;7125;48.106;11.544;2023-05-14T08:29:02;12.10;99.90
14097;DHT22;7125;48.106;11.544;2023-05-14T08:31:30;12.00;99.90
14097;DHT22;7125;48.106;11.544;2023-05-14T08:33:58;11.90;99.90
14097;DHT22;7125;48.106;11.544;2023-05-14T08:36:28;11.90;99.90
14097;DHT22;7125;48.106;11.544;2023-05-14T08:38:57;11.80;99.90
14097;DHT22;7125;48.106;11.544;2023-05-14T08:41:30;11.80;99.90
14097;DHT22;7125;48.106;11.544;2023-05-14T08:44:05;11.80;99.90
14097;DHT22;7125;48.106;11.544;2023-05-14T08:46:36;11.70;99.90
14097;DHT22;7125;48.106;11.544;2023-05-14T08:49:12;11.70;99.90
14097;DHT22;7125;48.106;11.544;2023-05-14T08:51:43;11.80;99.90
14097;DHT22;7125;48.106;11.544;2023-05-14T08:54:14;11.80;99.90
14097;DHT22;7125;48.106;11.544;2023-05-14T08:56:44;11.80;99.90
14097;DHT22;7125;48.106;11.544;2023-05-14T08:59:12;11.70;99.90
14097;DHT22;7125;48.106;11.544;2023-05-14T09:01:45;11.70;99.90
14097;DHT22;7125;48.106;11.544;2023-05-14T09:04:15;11.70;99.90
14097;DHT22;7125;48.106;11.544;2023-05-14T09:07:03;11.70;99.90
14097;DHT22;7125;48.106;11.544;2023-05-14T09:09:54;11.70;99.90
14097;DHT22;7125;48.106;11.544;2023-05-14T09:12:22;11.80;99.90
14097;DHT22;7125;48.106;11.544;2023-05-14T09:14:53;11.80;99.90
14097;DHT22;7125;48.106;11.544;2023-05-14T09:17:25;11.80;99.90
14097;DHT22;7125;48.106;11.544;2023-05-14T09:19:57;11.70;99.90
14097;DHT22;7125;48.106;11.544;2023-05-14T09:22:28;11.70;99.90
14097;DHT22;7125;48.106;11.544;2023-05-14T09:25:03;11.70;99.90
14097;DHT22;7125;48.106;11.544;2023-05-14T09:27:32;11.70;99.90
14097;DHT22;7125;48.106;11.544;2023-05-14T09:30:12;11.70;99.90
14097;DHT22;7125;48.106;11.544;2023-05-14T09:32:48;11.70;99.90
14097;DHT22;7125;48.106;11.544;2023-05-14T09:35:23;11.60;99.90
14097;DHT22;7125;48.106;11.544;2023-05-14T09:38:11;11.60;99.90
14097;DHT22;7125;48.106;11.544;2023-05-14T09:40:39;11.60;99.90
14097;DHT22;7125;48.106;11.544;2023-05-14T09:43:08;11.70;99.90
14097;DHT22;7125;48.106;11.544;2023-05-14T09:45:35;11.70;99.90
14097;DHT22;7125;48.106;11.544;2023-05-14T09:48:03;11.70;99.90
14097;DHT22;7125;48.106;11.544;2023-05-14T09:50:41;11.80;99.90
14097;DHT22;7125;48.106;11.544;2023-05-14T09:53:10;11.90;99.90
14097;DHT22;7125;48.106;11.544;2023-05-14T09:55:52;12.00;99.90
14097;DHT22;7125;48.106;11.544;2023-05-14T09:58:20;12.10;99.90
14097;DHT22;7125;48.106;11.544;2023-05-14T10:00:50;12.10;99.90
14097;DHT22;7125;48.106;11.544;2023-05-14T10:03:19;12.10;99.90
14097;DHT22;7125;48.106;11.544;2023-05-14T10:05:49;12.20;99.90
14097;DHT22;7125;48.106;11.544;2023-05-14T10:08:24;12.20;99.90
14097;DHT22;7125;48.106;11.544;2023-05-14T10:10:54;12.20;99.90
14097;DHT22;7125;48.106;11.544;2023-05-14T10:13:27;12.20;99.90
14097;DHT22;7125;48.106;11.544;2023-05-14T10:16:07;12.20;99.90
14097;DHT22;7125;48.106;11.544;2023-05-14T10:18:55;12.30;99.90
14097;DHT22;7125;48.106;11.544;2023-05-14T10:21:29;12.20;99.90
14097;DHT22;7125;48.106;11.544;2023-05-14T10:23:59;12.20;99.90
14097;DHT22;7125;48.106;11.544;2023-05-14T10:26:36;12.20;99.90
14097;DHT22;7125;48.106;11.544;2023-05-14T10:29:06;12.20;99.90
14097;DHT22;7125;48.106;11.544;2023-05-14T10:31:48;12.20;99.90
14097;DHT22;7125;48.106;11.544;2023-05-14T10:34:33;12.30;99.90
14097;DHT22;7125;48.106;11.544;2023-05-14T10:37:14;12.20;99.90
14097;DHT22;7125;48.106;11.544;2023-05-14T10:39:53;12.20;99.90
14097;DHT22;7125;48.106;11.544;2023-05-14T10:42:22;12.20;99.90
14097;DHT22;7125;48.106;11.544;2023-05-14T10:44:52;12.20;99.90
14097;DHT22;7125;48.106;11.544;2023-05-14T10:47:21;12.20;99.90
14097;DHT22;7125;48.106;11.544;2023-05-14T10:49:52;12.20;99.90
14097;DHT22;7125;48.106;11.544;2023-05-14T10:52:21;12.20;99.90
14097;DHT22;7125;48.106;11.544;2023-05-14T10:55:11;12.20;99.90
14097;DHT22;7125;48.106;11.544;2023-05-14T10:57:42;12.10;99.90
14097;DHT22;7125;48.106;11.544;2023-05-14T11:00:11;12.20;99.90
14097;DHT22;7125;48.106;11.544;2023-05-14T11:02:41;12.20;99.90
14097;DHT22;7125;48.106;11.544;2023-05-14T11:05:17;12.20;99.90
14097;DHT22;7125;48.106;11.544;2023-05-14T11:08:09;12.20;99.90
14097;DHT22;7125;48.106;11.544;2023-05-14T11:11:08;12.20;99.90
14097;DHT22;7125;48.106;11.544;2023-05-14T11:13:36;12.20;99.90
14097;DHT22;7125;48.106;11.544;2023-05-14T11:16:03;12.20;99.90
14097;DHT22;7125;48.106;11.544;2023-05-14T11:19:02;12.20;99.90
14097;DHT22;7125;48.106;11.544;2023-05-14T11:21:30;12.20;99.90
14097;DHT22;7125;48.106;11.544;2023-05-14T11:24:02;12.20;99.90
14097;DHT22;7125;48.106;11.544;2023-05-14T11:26:41;12.20;99.90
14097;DHT22;7125;48.106;11.544;2023-05-14T11:29:09;12.30;99.90
14097;DHT22;7125;48.106;11.544;2023-05-14T11:31:39;12.30;99.90
14097;DHT22;7125;48.106;11.544;2023-05-14T11:34:08;12.40;99.90
14097;DHT22;7125;48.106;11.544;2023-05-14T11:36:36;12.40;99.90
14097;DHT22;7125;48.106;11.544;2023-05-14T11:39:17;12.40;99.90
14097;DHT22;7125;48.106;11.544;2023-05-14T11:41:46;12.40;99.90
14097;DHT22;7125;48.106;11.544;2023-05-14T11:44:21;12.40;99.90
14097;DHT22;7125;48.106;11.544;2023-05-14T11:46:55;12.40;99.90
14097;DHT22;7125;48.106;11.544;2023-05-14T11:49:27;12.40;99.90
14097;DHT22;7125;48.106;11.544;2023-05-14T11:52:26;12.50;99.90
14097;DHT22;7125;48.106;11.544;2023-05-14T11:55:18;12.60;99.90
14097;DHT22;7125;48.106;11.544;2023-05-14T11:57:52;12.70;99.90
14097;DHT22;7125;48.106;11.544;2023-05-14T12:00:48;12.90;99.90
14097;DHT22;7125;48.106;11.544;2023-05-14T12:03:18;13.20;99.90
14097;DHT22;7125;48.106;11.544;2023-05-14T12:06:01;13.60;99.90
14097;DHT22;7125;48.106;11.544;2023-05-14T12:08:38;14.10;99.90
14097;DHT22;7125;48.106;11.544;2023-05-14T12:11:08;14.50;99.90
14097;DHT22;7125;48.106;11.544;2023-05-14T12:13:38;14.70;99.90
14097;DHT22;7125;48.106;11.544;2023-05-14T12:16:20;15.00;99.90
14097;DHT22;7125;48.106;11.544;2023-05-14T12:18:58;15.40;99.90
14097;DHT22;7125;48.106;11.544;2023-05-14T12:21:28;15.50;99.90
14097;DHT22;7125;48.106;11.544;2023-05-14T12:23:58;15.60;99.90
14097;DHT22;7125;48.106;11.544;2023-05-14T12:26:25;15.80;99.90
14097;DHT22;7125;48.106;11.544;2023-05-14T12:28:58;16.10;99.90
14097;DHT22;7125;48.106;11.544;2023-05-14T12:31:27;16.50;99.90
14097;DHT22;7125;48.106;11.544;2023-05-14T12:33:57;17.00;99.90
14097;DHT22;7125;48.106;11.544;2023-05-14T12:36:25;17.30;99.90
14097;DHT22;7125;48.106;11.544;2023-05-14T12:38:57;17.50;99.90
14097;DHT22;7125;48.106;11.544;2023-05-14T12:41:26;17.40;99.90
14097;DHT22;7125;48.106;11.544;2023-05-14T12:43:53;17.30;99.90
14097;DHT22;7125;48.106;11.544;2023-05-14T12:46:23;17.40;99.90
14097;DHT22;7125;48.106;11.544;2023-05-14T12:48:54;17.50;99.90
14097;DHT22;7125;48.106;11.544;2023-05-14T12:51:26;17.50;99.90
14097;DHT22;7125;48.106;11.544;2023-05-14T12:53:53;17.50;99.90
14097;DHT22;7125;48.106;11.544;2023-05-14T12:56:20;17.50;99.90
14097;DHT22;7125;48.106;11.544;2023-05-14T12:58:53;17.60;99.90
14097;DHT22;7125;48.106;11.544;2023-05-14T13:01:25;17.80;99.90
14097;DHT22;7125;48.106;11.544;2023-05-14T13:03:53;18.00;99.90
14097;DHT22;7125;48.106;11.544;2023-05-14T13:06:20;18.20;99.90
14097;DHT22;7125;48.106;11.544;2023-05-14T13:08:49;18.30;99.90
14097;DHT22;7125;48.106;11.544;2023-05-14T13:11:18;18.20;99.90
14097;DHT22;7125;48.106;11.544;2023-05-14T13:13:45;17.80;99.90
14097;DHT22;7125;48.106;11.544;2023-05-14T13:16:12;17.80;99.90
14097;DHT22;7125;48.106;11.544;2023-05-14T13:18:42;17.90;99.90
14097;DHT22;7125;48.106;11.544;2023-05-14T13:21:10;18.20;99.90
14097;DHT22;7125;48.106;11.544;2023-05-14T13:23:41;18.60;99.90
14097;DHT22;7125;48.106;11.544;2023-05-14T13:26:08;18.80;99.90
14097;DHT22;7125;48.106;11.544;2023-05-14T13:28:36;19.00;99.50
14097;DHT22;7125;48.106;11.544;2023-05-14T13:31:06;19.10;99.90
14097;DHT22;7125;48.106;11.544;2023-05-14T13:33:35;19.10;99.30
14097;DHT22;7125;48.106;11.544;2023-05-14T13:36:06;18.80;98.20
14097;DHT22;7125;48.106;11.544;2023-05-14T13:38:34;18.80;99.30
14097;DHT22;7125;48.106;11.544;2023-05-14T13:41:01;19.00;99.90
14097;DHT22;7125;48.106;11.544;2023-05-14T13:43:28;19.20;99.30
14097;DHT22;7125;48.106;11.544;2023-05-14T13:45:56;19.40;98.60
14097;DHT22;7125;48.106;11.544;2023-05-14T13:48:25;19.30;98.20
14097;DHT22;7125;48.106;11.544;2023-05-14T13:50:53;19.20;98.30
14097;DHT22;7125;48.106;11.544;2023-05-14T13:53:26;18.70;96.20
14097;DHT22;7125;48.106;11.544;2023-05-14T13:55:53;18.20;97.10
14097;DHT22;7125;48.106;11.544;2023-05-14T13:58:23;18.20;98.40
14097;DHT22;7125;48.106;11.544;2023-05-14T14:00:52;18.40;97.00
14097;DHT22;7125;48.106;11.544;2023-05-14T14:03:19;18.60;96.50
14097;DHT22;7125;48.106;11.544;2023-05-14T14:05:47;19.00;95.10
14097;DHT22;7125;48.106;11.544;2023-05-14T14:08:15;19.30;94.10
14097;DHT22;7125;48.106;11.544;2023-05-14T14:10:43;19.50;96.10
14097;DHT22;7125;48.106;11.544;2023-05-14T14:13:10;19.80;96.50
14097;DHT22;7125;48.106;11.544;2023-05-14T14:15:37;20.10;95.10
14097;DHT22;7125;48.106;11.544;2023-05-14T14:18:05;20.40;95.10
14097;DHT22;7125;48.106;11.544;2023-05-14T14:20:34;20.30;92.20
14097;DHT22;7125;48.106;11.544;2023-05-14T14:23:02;19.90;93.20
14097;DHT22;7125;48.106;11.544;2023-05-14T14:25:29;19.50;93.30
14097;DHT22;7125;48.106;11.544;2023-05-14T14:27:58;19.50;93.30
14097;DHT22;7125;48.106;11.544;2023-05-14T14:30:25;19.60;94.40
14097;DHT22;7125;48.106;11.544;2023-05-14T14:32:53;20.00;94.70
14097;DHT22;7125;48.106;11.544;2023-05-14T14:35:21;20.50;93.00
14097;DHT22;7125;48.106;11.544;2023-05-14T14:37:48;20.90;92.80
14097;DHT22;7125;48.106;11.544;2023-05-14T14:40:19;21.30;92.20
14097;DHT22;7125;48.106;11.544;2023-05-14T14:42:48;21.70;90.90
14097;DHT22;7125;48.106;11.544;2023-05-14T14:45:22;22.00;89.70
14097;DHT22;7125;48.106;11.544;2023-05-14T14:47:50;22.10;90.30
14097;DHT22;7125;48.106;11.544;2023-05-14T14:50:18;22.20;89.50
14097;DHT22;7125;48.106;11.544;2023-05-14T14:52:45;22.10;89.40
14097;DHT22;7125;48.106;11.544;2023-05-14T14:55:13;21.60;88.50
14097;DHT22;7125;48.106;11.544;2023-05-14T14:57:40;21.00;88.50
14097;DHT22;7125;48.106;11.544;2023-05-14T15:00:08;20.70;89.50
14097;DHT22;7125;48.106;11.544;2023-05-14T15:02:37;20.20;90.50
14097;DHT22;7125;48.106;11.544;2023-05-14T15:05:07;19.70;90.00
14097;DHT22;7125;48.106;11.544;2023-05-14T15:07:38;19.30;90.70
14097;DHT22;7125;48.106;11.544;2023-05-14T15:10:06;18.80;90.90
14097;DHT22;7125;48.106;11.544;2023-05-14T15:12:35;18.40;92.10
14097;DHT22;7125;48.106;11.544;2023-05-14T15:15:08;18.20;92.70
14097;DHT22;7125;48.106;11.544;2023-05-14T15:17:39;18.00;94.00
14097;DHT22;7125;48.106;11.544;2023-05-14T15:20:12;17.80;94.50
14097;DHT22;7125;48.106;11.544;2023-05-14T15:22:40;17.70;94.80
14097;DHT22;7125;48.106;11.544;2023-05-14T15:25:08;17.60;94.50
14097;DHT22;7125;48.106;11.544;2023-05-14T15:27:39;17.50;94.90
14097;DHT22;7125;48.106;11.544;2023-05-14T15:30:07;17.40;95.40
14097;DHT22;7125;48.106;11.544;2023-05-14T15:32:34;17.40;95.50
14097;DHT22;7125;48.106;11.544;2023-05-14T15:35:06;17.30;95.10
14097;DHT22;7125;48.106;11.544;2023-05-14T15:37:37;17.30;96.50
14097;DHT22;7125;48.106;11.544;2023-05-14T15:40:05;17.30;96.30
14097;DHT22;7125;48.106;11.544;2023-05-14T15:42:34;17.20;96.40
14097;DHT22;7125;48.106;11.544;2023-05-14T15:45:01;17.30;95.80
14097;DHT22;7125;48.106;11.544;2023-05-14T15:47:28;17.20;96.00
14097;DHT22;7125;48.106;11.544;2023-05-14T15:49:57;17.20;96.50